Current | Forecast
Updated: 1:58 PM JST on April 30, 2017
Observed at Futenma MCAF, Japan
Temperature 74°F
Humidity 28%
Dew Point 39°F
Wind ESE at 12 mph
Pressure 29.98 in (Falling)
Conditions Scattered Clouds
Visibility 6.2 miles
UV 11 out of 16
Clouds Scattered Clouds (SCT) : 5000 ft
Yesterday's Maximum 74°F
Yesterday's Minimum 61°F approx.
Yesterday's Cooling Degree Days 2 approx.
Sunrise5:52 AM JST
Sunset7:00 PM JST
Moon Rise9:13 AM JST
Moon Set11:04 PM JST
Moon PhaseMoon Phase
Waxing Crescent
Raw METARMETAR ROTM 300458Z 11010KT 9999 SCT050 23/04 A3002 RMK SLP152 STNPR29720 T02330039


Monday
. High: 77° F.
Tuesday
. High: 75° F.
Wednesday
. High: 73° F.
Thursday
. High: 75° F.
Friday
. High: 77° F.
Saturday
. High: 77° F.
Sunday
. High: 77° F.
Monday
. High: 79° F.

Units: English | Metric

Find the Weather for any City, State or Zipcode, or Country:

U.S. State List | Severe Weather | Tropical Storms | Ski Conditions
United States | Canada | Central America | South America | Asia | Europe | Australia | Africa | Islands

Weather Underground

© Copyright 2017
The Weather Company, LLC